createdAt,value
2023-04-16T00:01:59.894Z,8.83
2023-04-16T00:04:30.066Z,6.80
2023-04-16T00:06:56.914Z,7.38
2023-04-16T00:09:23.955Z,8.43
2023-04-16T00:11:51.036Z,8.17
2023-04-16T00:14:17.935Z,9.25
2023-04-16T00:16:44.800Z,7.88
2023-04-16T00:19:12.364Z,6.22
2023-04-16T00:21:39.350Z,8.20
2023-04-16T00:24:06.498Z,6.75
2023-04-16T00:26:33.570Z,6.53
2023-04-16T00:29:01.090Z,4.68
2023-04-16T00:31:32.915Z,6.57
2023-04-16T00:34:00.381Z,6.45
2023-04-16T00:36:28.617Z,4.38
2023-04-16T00:38:57.154Z,3.65
2023-04-16T00:41:24.546Z,6.45
2023-04-16T00:43:51.769Z,5.80
2023-04-16T00:46:24.622Z,7.13
2023-04-16T00:48:54.238Z,4.28
2023-04-16T00:51:21.664Z,5.65
2023-04-16T00:53:49.227Z,6.10
2023-04-16T00:56:17.625Z,6.40
2023-04-16T00:58:45.173Z,5.03
2023-04-16T01:01:14.466Z,4.32
2023-04-16T01:03:46.120Z,4.80
2023-04-16T01:06:14.038Z,3.50
2023-04-16T01:08:41.213Z,6.63
2023-04-16T01:11:08.298Z,4.50
2023-04-16T01:13:39.264Z,4.18
2023-04-16T01:16:08.285Z,4.32
2023-04-16T01:18:36.632Z,4.83
2023-04-16T01:21:04.083Z,7.20
2023-04-16T01:23:31.438Z,4.50
2023-04-16T01:25:58.270Z,3.92
2023-04-16T01:28:25.613Z,7.22
2023-04-16T01:30:52.643Z,6.55
2023-04-16T01:33:32.784Z,7.07
2023-04-16T01:35:59.799Z,7.10
2023-04-16T01:38:26.599Z,10.30
2023-04-16T01:41:00.031Z,6.22
2023-04-16T01:43:27.080Z,5.18
2023-04-16T01:46:16.046Z,9.10
2023-04-16T01:48:43.414Z,7.80
2023-04-16T01:51:10.278Z,6.93
2023-04-16T01:53:37.467Z,7.75
2023-04-16T01:56:04.862Z,10.07
2023-04-16T01:58:33.419Z,7.25
2023-04-16T02:01:00.942Z,9.55
2023-04-16T02:03:28.347Z,8.53
2023-04-16T02:05:55.264Z,5.50
2023-04-16T02:08:22.139Z,11.40
2023-04-16T02:10:50.876Z,9.38
2023-04-16T02:13:17.847Z,10.43
2023-04-16T02:15:48.223Z,11.30
2023-04-16T02:18:18.427Z,8.43
2023-04-16T02:20:47.110Z,8.52
2023-04-16T02:23:17.416Z,7.22
2023-04-16T02:25:47.070Z,9.93
2023-04-16T02:28:17.247Z,7.53
2023-04-16T02:30:46.260Z,10.17
2023-04-16T02:33:15.288Z,6.90
2023-04-16T02:35:52.439Z,10.05
2023-04-16T02:38:19.935Z,7.82
2023-04-16T02:40:46.745Z,8.43
2023-04-16T02:43:13.715Z,10.57
2023-04-16T02:45:40.858Z,10.00
2023-04-16T02:48:09.094Z,11.20
2023-04-16T02:50:36.182Z,11.88
2023-04-16T02:53:04.374Z,9.97
2023-04-16T02:55:31.291Z,8.40
2023-04-16T02:57:58.174Z,14.75
2023-04-16T03:00:25.820Z,8.88
2023-04-16T03:02:52.840Z,13.05
2023-04-16T03:05:19.916Z,12.25
2023-04-16T03:07:46.972Z,13.60
2023-04-16T03:10:15.262Z,9.80
2023-04-16T03:12:42.127Z,15.43
2023-04-16T03:15:09.574Z,9.65
2023-04-16T03:17:36.474Z,12.30
2023-04-16T03:20:04.208Z,9.88
2023-04-16T03:22:31.421Z,12.70
2023-04-16T03:24:58.285Z,14.13
2023-04-16T03:27:25.090Z,14.32
2023-04-16T03:29:52.306Z,13.27
2023-04-16T03:32:19.436Z,17.27
2023-04-16T03:34:46.444Z,10.90
2023-04-16T03:37:13.270Z,14.40
2023-04-16T03:39:40.348Z,11.27
2023-04-16T03:42:07.246Z,10.57
2023-04-16T03:44:35.042Z,9.75
2023-04-16T03:47:02.318Z,12.50
2023-04-16T03:49:29.416Z,11.47
2023-04-16T03:51:57.346Z,10.65
2023-04-16T03:54:25.748Z,12.45
2023-04-16T03:57:03.121Z,13.23
2023-04-16T03:59:29.968Z,13.40
2023-04-16T04:01:57.158Z,11.55
2023-04-16T04:04:24.278Z,14.50
2023-04-16T04:06:51.141Z,13.25
2023-04-16T04:09:18.036Z,13.20
2023-04-16T04:11:45.655Z,16.75
2023-04-16T04:14:12.462Z,19.13
2023-04-16T04:16:39.394Z,20.67
2023-04-16T04:19:06.436Z,20.20
2023-04-16T04:21:33.375Z,22.58
2023-04-16T04:24:00.221Z,16.08
2023-04-16T04:26:29.691Z,17.48
2023-04-16T04:28:57.100Z,16.38
2023-04-16T04:31:24.040Z,14.60
2023-04-16T04:33:51.101Z,15.05
2023-04-16T04:36:17.999Z,17.27
2023-04-16T04:38:45.023Z,14.00
2023-04-16T04:41:11.983Z,22.73
2023-04-16T04:43:39.360Z,16.75
2023-04-16T04:46:06.620Z,19.48
2023-04-16T04:48:33.881Z,20.75
2023-04-16T04:51:03.517Z,18.73
2023-04-16T04:53:31.631Z,24.70
2023-04-16T04:56:05.471Z,23.13
2023-04-16T04:58:38.884Z,26.20
2023-04-16T05:01:06.290Z,18.65
2023-04-16T05:03:33.298Z,22.33
2023-04-16T05:06:00.272Z,20.73
2023-04-16T05:08:27.288Z,28.42
2023-04-16T05:10:54.084Z,25.88
2023-04-16T05:13:21.045Z,28.17
2023-04-16T05:15:48.028Z,34.90
2023-04-16T05:18:14.884Z,29.77
2023-04-16T05:20:41.782Z,31.42
2023-04-16T05:23:08.898Z,32.42
2023-04-16T05:25:35.758Z,37.35
2023-04-16T05:28:02.698Z,40.42
2023-04-16T05:30:29.636Z,41.03
2023-04-16T05:32:56.588Z,38.97
2023-04-16T05:35:23.465Z,42.88
2023-04-16T05:37:50.516Z,44.22
2023-04-16T05:40:17.400Z,50.40
2023-04-16T05:42:44.237Z,45.67
2023-04-16T05:45:11.242Z,44.15
2023-04-16T05:47:38.161Z,41.13
2023-04-16T05:50:05.547Z,45.70
2023-04-16T05:52:32.468Z,49.13
2023-04-16T05:55:01.680Z,44.88
2023-04-16T05:57:29.272Z,44.75
2023-04-16T05:59:56.175Z,44.65
2023-04-16T06:02:23.226Z,41.90
2023-04-16T06:04:50.415Z,38.75
2023-04-16T06:07:17.370Z,40.33
2023-04-16T06:09:45.130Z,40.45
2023-04-16T06:12:12.069Z,37.15
2023-04-16T06:14:38.916Z,46.15
2023-04-16T06:17:05.743Z,39.17
2023-04-16T06:19:32.549Z,41.30
2023-04-16T06:21:59.643Z,42.22
2023-04-16T06:24:26.405Z,37.72
2023-04-16T06:26:54.362Z,40.13
2023-04-16T06:29:27.938Z,41.92
2023-04-16T06:32:00.732Z,39.22
2023-04-16T06:34:28.577Z,40.70
2023-04-16T06:36:55.716Z,29.80
2023-04-16T06:39:22.511Z,41.40
2023-04-16T06:41:49.666Z,39.03
2023-04-16T06:44:17.894Z,35.60
2023-04-16T06:46:44.685Z,38.00
2023-04-16T06:49:11.935Z,33.13
2023-04-16T06:51:38.999Z,32.33
2023-04-16T06:54:06.252Z,33.70
2023-04-16T06:56:33.313Z,32.88
2023-04-16T06:59:00.977Z,24.60
2023-04-16T07:01:28.718Z,29.75
2023-04-16T07:03:55.932Z,30.48
2023-04-16T07:06:23.047Z,22.13
2023-04-16T07:08:49.923Z,32.38
2023-04-16T07:11:17.194Z,29.40
2023-04-16T07:13:44.020Z,29.35
2023-04-16T07:16:11.022Z,29.27
2023-04-16T07:18:38.046Z,33.95
2023-04-16T07:21:04.865Z,24.63
2023-04-16T07:23:31.813Z,24.58
2023-04-16T07:25:58.726Z,28.05
2023-04-16T07:28:25.833Z,25.10
2023-04-16T07:30:52.810Z,23.67
2023-04-16T07:33:19.646Z,20.50
2023-04-16T07:35:46.511Z,24.17
2023-04-16T07:38:13.431Z,28.65
2023-04-16T07:40:40.525Z,27.90
2023-04-16T07:43:07.438Z,24.47
2023-04-16T07:45:34.384Z,25.67
2023-04-16T07:48:01.476Z,24.23
2023-04-16T07:50:28.551Z,28.40
2023-04-16T07:52:55.369Z,22.65
2023-04-16T07:55:22.330Z,25.30
2023-04-16T07:57:49.222Z,30.90
2023-04-16T08:00:16.495Z,25.90
2023-04-16T08:02:44.530Z,25.52
2023-04-16T08:05:13.319Z,22.38
2023-04-16T08:07:40.635Z,24.70
2023-04-16T08:10:08.197Z,22.45
2023-04-16T08:12:35.373Z,23.55
2023-04-16T08:15:02.263Z,23.30
2023-04-16T08:17:30.199Z,21.15
2023-04-16T08:19:57.186Z,20.45
2023-04-16T08:22:24.006Z,22.40
2023-04-16T08:24:50.850Z,18.20
2023-04-16T08:27:19.600Z,16.10
2023-04-16T08:29:47.471Z,18.38
2023-04-16T08:32:14.419Z,18.42
2023-04-16T08:34:42.449Z,14.05
2023-04-16T08:37:09.668Z,14.77
2023-04-16T08:39:36.658Z,16.42
2023-04-16T08:42:11.219Z,17.55
2023-04-16T08:44:41.567Z,18.13
2023-04-16T08:47:11.899Z,18.13
2023-04-16T08:49:44.378Z,13.63
2023-04-16T08:52:18.355Z,17.48
2023-04-16T08:54:58.413Z,13.67
2023-04-16T08:57:48.941Z,15.93
2023-04-16T09:00:16.848Z,18.77
2023-04-16T09:02:44.136Z,18.92
2023-04-16T09:05:14.381Z,15.25
2023-04-16T09:07:42.158Z,14.80
2023-04-16T09:10:09.921Z,17.00
2023-04-16T09:12:36.900Z,16.20
2023-04-16T09:15:05.169Z,17.73
2023-04-16T09:17:32.049Z,19.48
2023-04-16T09:19:59.179Z,15.90
2023-04-16T09:22:26.124Z,22.27
2023-04-16T09:24:53.049Z,17.38
2023-04-16T09:27:20.713Z,19.73
2023-04-16T09:29:47.720Z,15.88
2023-04-16T09:32:14.724Z,15.30
2023-04-16T09:34:59.204Z,14.38
2023-04-16T09:37:27.816Z,13.73
2023-04-16T09:40:02.526Z,15.18
2023-04-16T09:42:32.309Z,15.45
2023-04-16T09:45:01.314Z,14.38
2023-04-16T09:47:41.320Z,13.73
2023-04-16T09:50:12.266Z,16.35
2023-04-16T09:52:39.706Z,13.10
2023-04-16T09:55:06.983Z,15.50
2023-04-16T09:57:37.028Z,13.60
2023-04-16T10:00:06.230Z,15.50
2023-04-16T10:02:34.695Z,12.45
2023-04-16T10:05:05.813Z,16.15
2023-04-16T10:07:36.943Z,12.57
2023-04-16T10:10:04.589Z,11.60
2023-04-16T10:12:32.821Z,11.68
2023-04-16T10:15:00.129Z,9.35
2023-04-16T10:17:30.168Z,12.82
2023-04-16T10:19:58.248Z,13.63
2023-04-16T10:22:26.174Z,10.40
2023-04-16T10:24:53.882Z,10.77
2023-04-16T10:27:21.271Z,9.00
2023-04-16T10:29:49.282Z,12.23
2023-04-16T10:32:17.868Z,8.43
2023-04-16T10:34:47.070Z,8.00
2023-04-16T10:37:15.912Z,8.35
2023-04-16T10:39:42.783Z,8.45
2023-04-16T10:42:11.985Z,14.37
2023-04-16T10:44:42.785Z,7.80
2023-04-16T10:47:13.283Z,8.10
2023-04-16T10:49:41.365Z,8.48
2023-04-16T10:52:19.001Z,8.18
2023-04-16T10:54:50.426Z,8.15
2023-04-16T10:57:19.735Z,7.15
2023-04-16T10:59:48.791Z,10.00
2023-04-16T11:02:17.924Z,7.60
2023-04-16T11:04:46.677Z,9.10
2023-04-16T11:07:16.627Z,9.10
2023-04-16T11:10:02.517Z,8.57
2023-04-16T11:12:29.717Z,10.90
2023-04-16T11:15:06.803Z,9.55
2023-04-16T11:18:00.496Z,8.80
2023-04-16T11:20:28.385Z,13.02
2023-04-16T11:22:56.670Z,8.05
2023-04-16T11:25:26.119Z,8.60
2023-04-16T11:27:53.758Z,7.88
2023-04-16T11:30:29.911Z,9.90
2023-04-16T11:32:56.878Z,11.57
2023-04-16T11:35:23.791Z,10.40
2023-04-16T11:37:55.575Z,11.15
2023-04-16T11:40:22.532Z,13.30
2023-04-16T11:42:49.416Z,10.68
2023-04-16T11:45:16.396Z,12.80
2023-04-16T11:47:52.291Z,16.08
2023-04-16T11:50:27.656Z,18.92
2023-04-16T11:52:57.113Z,18.30
2023-04-16T11:55:24.682Z,16.58
2023-04-16T11:57:51.734Z,20.33
2023-04-16T12:00:24.461Z,21.92
2023-04-16T12:02:55.661Z,21.48
2023-04-16T12:05:39.094Z,24.23
2023-04-16T12:08:10.735Z,18.90
2023-04-16T12:10:55.496Z,19.75
2023-04-16T12:13:23.414Z,16.65
2023-04-16T12:15:56.096Z,21.33
2023-04-16T12:18:26.817Z,22.00
2023-04-16T12:20:53.876Z,20.40
2023-04-16T12:23:29.442Z,21.47
2023-04-16T12:26:02.291Z,21.35
2023-04-16T12:28:32.211Z,16.90
2023-04-16T12:30:59.545Z,23.45
2023-04-16T12:33:26.461Z,23.77
2023-04-16T12:35:53.490Z,25.17
2023-04-16T12:38:22.797Z,24.05
2023-04-16T12:40:51.070Z,22.52
2023-04-16T12:43:18.278Z,21.80
2023-04-16T12:45:45.449Z,21.08
2023-04-16T12:48:12.292Z,24.43
2023-04-16T12:50:39.834Z,23.83
2023-04-16T12:53:06.720Z,23.02
2023-04-16T12:55:33.554Z,18.93
2023-04-16T12:58:00.389Z,23.38
2023-04-16T13:00:27.330Z,23.17
2023-04-16T13:02:54.397Z,18.85
2023-04-16T13:05:21.443Z,25.92
2023-04-16T13:07:48.353Z,21.23
2023-04-16T13:10:16.647Z,27.45
2023-04-16T13:12:43.630Z,23.90
2023-04-16T13:15:11.094Z,19.43
2023-04-16T13:17:37.997Z,23.05
2023-04-16T13:20:05.613Z,20.33
2023-04-16T13:22:32.469Z,21.20
2023-04-16T13:24:59.408Z,19.40
2023-04-16T13:27:26.374Z,17.83
2023-04-16T13:29:53.358Z,20.15
2023-04-16T13:32:20.431Z,23.63
2023-04-16T13:34:47.516Z,21.27
2023-04-16T13:37:14.442Z,16.45
2023-04-16T13:39:41.581Z,20.42
2023-04-16T13:42:08.684Z,18.00
2023-04-16T13:44:35.559Z,21.10
2023-04-16T13:47:02.579Z,19.65
2023-04-16T13:49:29.673Z,19.92
2023-04-16T13:51:56.456Z,16.73
2023-04-16T13:54:23.278Z,19.93
2023-04-16T13:56:51.232Z,22.00
2023-04-16T13:59:18.734Z,20.37
2023-04-16T14:01:46.036Z,24.65
2023-04-16T14:04:13.458Z,24.85
2023-04-16T14:06:40.600Z,21.75
2023-04-16T14:09:09.591Z,26.00
2023-04-16T14:11:37.348Z,18.00
2023-04-16T14:14:04.205Z,18.70
2023-04-16T14:16:31.444Z,21.58
2023-04-16T14:18:58.461Z,18.63
2023-04-16T14:21:25.354Z,19.65
2023-04-16T14:23:52.178Z,21.13
2023-04-16T14:26:19.083Z,18.48
2023-04-16T14:28:45.942Z,21.98
2023-04-16T14:31:12.832Z,17.60
2023-04-16T14:33:39.714Z,21.98
2023-04-16T14:36:06.899Z,19.85
2023-04-16T14:38:33.699Z,20.92
2023-04-16T14:41:00.719Z,23.80
2023-04-16T14:43:27.847Z,21.00
2023-04-16T14:45:54.787Z,21.45
2023-04-16T14:48:22.187Z,19.58
2023-04-16T14:50:49.064Z,23.47
2023-04-16T14:53:16.314Z,25.15
2023-04-16T14:55:43.192Z,25.67
2023-04-16T14:58:10.890Z,23.70
2023-04-16T15:00:38.003Z,20.88
2023-04-16T15:03:05.930Z,23.40
2023-04-16T15:05:33.179Z,21.63
2023-04-16T15:08:00.598Z,26.50
2023-04-16T15:10:27.849Z,19.10
2023-04-16T15:12:54.639Z,26.02
2023-04-16T15:15:21.574Z,24.77
2023-04-16T15:17:50.456Z,24.88
2023-04-16T15:20:17.599Z,23.40
2023-04-16T15:22:44.649Z,23.20
2023-04-16T15:25:11.935Z,19.95
2023-04-16T15:27:38.778Z,25.00
2023-04-16T15:30:06.569Z,23.25
2023-04-16T15:32:33.605Z,25.02
2023-04-16T15:35:02.078Z,26.75
2023-04-16T15:37:28.870Z,22.77
2023-04-16T15:39:56.746Z,19.52
2023-04-16T15:42:24.466Z,23.40
2023-04-16T15:44:51.253Z,22.13
2023-04-16T15:47:18.198Z,26.35
2023-04-16T15:49:44.989Z,26.85
2023-04-16T15:52:12.118Z,27.90
2023-04-16T15:54:39.226Z,26.15
2023-04-16T15:57:06.426Z,22.92
2023-04-16T15:59:33.243Z,26.45
2023-04-16T16:02:00.347Z,24.30
2023-04-16T16:04:28.289Z,26.90
2023-04-16T16:06:56.248Z,26.67
2023-04-16T16:09:26.910Z,28.27
2023-04-16T16:11:54.503Z,25.35
2023-04-16T16:14:22.128Z,22.53
2023-04-16T16:16:49.134Z,23.98
2023-04-16T16:19:16.721Z,24.60
2023-04-16T16:21:43.678Z,26.73
2023-04-16T16:24:10.840Z,20.85
2023-04-16T16:26:37.854Z,18.70
2023-04-16T16:29:05.113Z,22.48
2023-04-16T16:31:31.991Z,20.63
2023-04-16T16:33:58.859Z,21.13
2023-04-16T16:36:26.585Z,18.67
2023-04-16T16:38:53.588Z,18.27
2023-04-16T16:41:20.595Z,19.40
2023-04-16T16:43:47.392Z,19.73
2023-04-16T16:46:14.471Z,19.75
2023-04-16T16:48:41.281Z,22.80
2023-04-16T16:51:10.566Z,16.92
2023-04-16T16:53:37.573Z,23.42
2023-04-16T16:56:04.565Z,21.05
2023-04-16T16:58:31.543Z,17.70
2023-04-16T17:00:58.975Z,17.10
2023-04-16T17:03:26.121Z,22.52
2023-04-16T17:05:53.010Z,18.02
2023-04-16T17:08:19.855Z,20.17
2023-04-16T17:10:46.809Z,21.95
2023-04-16T17:13:15.120Z,22.15
2023-04-16T17:15:42.152Z,20.55
2023-04-16T17:18:09.018Z,20.35
2023-04-16T17:20:35.797Z,22.38
2023-04-16T17:23:03.190Z,22.77
2023-04-16T17:25:30.465Z,22.35
2023-04-16T17:27:57.217Z,24.83
2023-04-16T17:30:25.909Z,20.13
2023-04-16T17:32:52.917Z,21.08
2023-04-16T17:35:19.839Z,22.93
2023-04-16T17:37:46.659Z,21.58
2023-04-16T17:40:15.529Z,26.53
2023-04-16T17:42:42.671Z,29.80
2023-04-16T17:45:09.879Z,23.52
2023-04-16T17:47:36.938Z,24.95
2023-04-16T17:50:04.543Z,24.33
2023-04-16T17:52:31.382Z,23.30
2023-04-16T17:55:01.347Z,29.60
2023-04-16T17:57:28.523Z,26.00
2023-04-16T17:59:55.689Z,27.27
2023-04-16T18:02:23.173Z,28.55
2023-04-16T18:04:50.624Z,24.13
2023-04-16T18:07:17.540Z,29.08
2023-04-16T18:09:44.323Z,33.08
2023-04-16T18:12:11.242Z,30.37
2023-04-16T18:14:40.739Z,22.27
2023-04-16T18:17:07.588Z,31.05
2023-04-16T18:19:35.515Z,28.38
2023-04-16T18:22:02.438Z,30.67
2023-04-16T18:24:29.291Z,29.55
2023-04-16T18:26:56.819Z,27.77
2023-04-16T18:29:25.295Z,25.33
2023-04-16T18:31:52.517Z,26.05
2023-04-16T18:34:20.697Z,26.63
2023-04-16T18:36:47.798Z,25.27
2023-04-16T18:39:14.794Z,27.48
2023-04-16T18:41:43.702Z,27.95
2023-04-16T18:44:13.309Z,26.13
2023-04-16T18:46:40.596Z,30.23
2023-04-16T18:49:07.566Z,26.25
2023-04-16T18:51:34.544Z,25.00
2023-04-16T18:54:01.368Z,28.42
2023-04-16T18:56:31.042Z,27.17
2023-04-16T18:58:57.781Z,30.45
2023-04-16T19:01:24.678Z,30.90
2023-04-16T19:03:51.661Z,27.17
2023-04-16T19:06:18.654Z,28.77
2023-04-16T19:08:45.618Z,28.52
2023-04-16T19:11:12.534Z,25.48
2023-04-16T19:13:39.853Z,30.15
2023-04-16T19:16:11.300Z,27.70
2023-04-16T19:18:39.068Z,27.95
2023-04-16T19:21:07.254Z,29.20
2023-04-16T19:23:34.154Z,28.10
2023-04-16T19:26:01.520Z,26.70
2023-04-16T19:28:28.857Z,28.38
2023-04-16T19:30:56.009Z,30.15
2023-04-16T19:33:22.880Z,24.08
2023-04-16T19:35:49.969Z,29.00
2023-04-16T19:38:16.876Z,29.77
2023-04-16T19:40:45.797Z,29.00
2023-04-16T19:43:12.937Z,28.33
2023-04-16T19:45:47.464Z,27.48
2023-04-16T19:48:14.894Z,28.80
2023-04-16T19:50:42.402Z,23.65
2023-04-16T19:53:09.517Z,28.65
2023-04-16T19:55:36.692Z,25.88
2023-04-16T19:58:06.476Z,24.97
2023-04-16T20:00:37.431Z,24.75
2023-04-16T20:03:05.191Z,29.20
2023-04-16T20:05:32.255Z,26.73
2023-04-16T20:07:59.447Z,28.98
2023-04-16T20:10:27.822Z,30.92
2023-04-16T20:12:54.813Z,31.30
2023-04-16T20:15:22.156Z,32.20
2023-04-16T20:17:49.142Z,33.25
2023-04-16T20:20:16.486Z,40.40
2023-04-16T20:22:43.776Z,36.58
2023-04-16T20:25:11.370Z,37.53
2023-04-16T20:27:38.262Z,37.50
2023-04-16T20:30:06.428Z,37.35
2023-04-16T20:32:33.529Z,36.38
2023-04-16T20:35:01.933Z,33.85
2023-04-16T20:37:29.235Z,41.83
2023-04-16T20:39:56.299Z,42.83
2023-04-16T20:42:26.188Z,46.83
2023-04-16T20:44:56.275Z,38.17
2023-04-16T20:47:23.347Z,37.90
2023-04-16T20:49:50.436Z,40.33
2023-04-16T20:52:17.346Z,38.55
2023-04-16T20:54:44.281Z,37.40
2023-04-16T20:57:11.135Z,40.42
2023-04-16T20:59:38.099Z,46.25
2023-04-16T21:02:05.448Z,41.20
2023-04-16T21:04:32.460Z,36.22
2023-04-16T21:07:03.167Z,48.20
2023-04-16T21:09:31.334Z,36.30
2023-04-16T21:11:58.253Z,39.83
2023-04-16T21:14:25.400Z,37.72
2023-04-16T21:16:52.294Z,43.65
2023-04-16T21:19:19.156Z,40.83
2023-04-16T21:21:46.192Z,36.03
2023-04-16T21:24:13.094Z,40.30
2023-04-16T21:26:40.111Z,37.88
2023-04-16T21:29:07.182Z,37.38
2023-04-16T21:31:34.302Z,44.88
2023-04-16T21:34:01.201Z,41.72
2023-04-16T21:36:29.285Z,40.55
2023-04-16T21:38:56.152Z,41.17
2023-04-16T21:41:23.038Z,40.88
2023-04-16T21:43:49.774Z,42.92
2023-04-16T21:46:16.827Z,42.57
2023-04-16T21:48:43.762Z,42.88
2023-04-16T21:51:10.712Z,40.40
2023-04-16T21:53:39.028Z,40.17
2023-04-16T21:56:06.587Z,39.20
2023-04-16T21:58:33.472Z,39.45
2023-04-16T22:01:00.504Z,40.58
2023-04-16T22:03:30.395Z,38.40
2023-04-16T22:06:01.494Z,41.58
2023-04-16T22:08:32.073Z,41.33
2023-04-16T22:11:01.307Z,42.00
2023-04-16T22:13:34.115Z,40.38
2023-04-16T22:16:03.971Z,37.03
2023-04-16T22:18:33.875Z,40.53
2023-04-16T22:21:01.052Z,39.63
2023-04-16T22:23:27.918Z,41.17
2023-04-16T22:25:55.991Z,45.97
2023-04-16T22:28:23.582Z,37.50
2023-04-16T22:30:51.130Z,40.35
2023-04-16T22:33:18.397Z,40.90
2023-04-16T22:35:45.609Z,43.35
2023-04-16T22:38:12.449Z,42.15
2023-04-16T22:40:39.313Z,41.55
2023-04-16T22:43:06.267Z,46.08
2023-04-16T22:45:33.087Z,42.88
2023-04-16T22:48:00.044Z,39.28
2023-04-16T22:50:27.232Z,41.50
2023-04-16T22:52:53.996Z,43.95
2023-04-16T22:55:21.070Z,44.78
2023-04-16T22:57:47.907Z,44.03
2023-04-16T23:00:16.560Z,47.75
2023-04-16T23:02:44.231Z,49.55
2023-04-16T23:05:11.886Z,39.38
2023-04-16T23:07:39.076Z,38.77
2023-04-16T23:10:08.232Z,37.53
2023-04-16T23:12:37.481Z,32.80
2023-04-16T23:15:06.402Z,39.58
2023-04-16T23:17:33.879Z,38.53
2023-04-16T23:20:00.932Z,37.13
2023-04-16T23:22:27.994Z,38.85
2023-04-16T23:24:54.807Z,35.88
2023-04-16T23:27:21.762Z,42.72
2023-04-16T23:29:48.683Z,38.28
2023-04-16T23:32:15.572Z,41.85
2023-04-16T23:34:42.576Z,41.65
2023-04-16T23:37:09.522Z,45.38
2023-04-16T23:39:36.368Z,42.25
2023-04-16T23:42:03.331Z,46.80
2023-04-16T23:44:30.674Z,38.72
2023-04-16T23:46:57.556Z,42.10
2023-04-16T23:49:24.674Z,42.58
2023-04-16T23:51:51.750Z,47.55
2023-04-16T23:54:18.789Z,44.08
2023-04-16T23:56:45.754Z,47.38
2023-04-16T23:59:12.866Z,44.80
